Time;durP1;ratioP1;P1;durP2;ratioP2;P2;SDS_P1;SDS_P2;PMS_P1;PMS_P2;Temp;Humidity;BMP_temperature;BMP_pressure;BME280_temperature;BME280_humidity;BME280_pressure;Samples;Min_cycle;Max_cycle;Signal;HPM_P1;HPM_P2
2023/02/11 00:00:25;;;;;;;52.10;28.10;;;;;;;2.92;52.02;100718.45;229181;1195;139279;-71
2023/02/11 00:05:59;;;;;;;51.10;28.10;;;;;;;2.85;52.22;100714.80;231233;1193;138735;-70
2023/02/11 00:11:03;;;;;;;51.20;28.40;;;;;;;2.77;52.19;100700.63;230700;1195;138460;-70
2023/02/11 00:16:09;;;;;;;50.20;29.40;;;;;;;2.71;52.55;100698.72;231755;1194;138627;-70
2023/02/11 00:21:15;;;;;;;51.10;29.00;;;;;;;2.70;52.58;100684.35;232129;1196;138544;-72
2023/02/11 00:26:24;;;;;;;53.50;29.70;;;;;;;2.70;52.58;100677.70;230603;1194;139005;-72
2023/02/11 00:31:28;;;;;;;50.30;29.00;;;;;;;2.66;52.39;100681.23;231450;1194;139108;-72
2023/02/11 00:36:32;;;;;;;49.60;28.50;;;;;;;2.60;52.47;100674.91;229288;1196;138416;-72
2023/02/11 00:41:35;;;;;;;54.60;30.90;;;;;;;2.48;52.59;100672.33;229014;1194;139336;-72
2023/02/11 00:46:38;;;;;;;52.60;30.30;;;;;;;2.39;53.05;100678.15;229884;1197;139152;-71
2023/02/11 00:51:45;;;;;;;56.40;31.30;;;;;;;2.36;52.97;100670.78;230787;1198;138931;-71
2023/02/11 00:56:48;;;;;;;59.80;31.60;;;;;;;2.31;53.12;100649.27;230162;1198;139455;-72
2023/02/11 01:01:52;;;;;;;62.90;32.50;;;;;;;2.29;53.28;100641.23;228625;1200;138529;-72
2023/02/11 01:06:55;;;;;;;61.50;32.80;;;;;;;2.29;53.22;100630.16;230832;1198;138881;-73
2023/02/11 01:12:00;;;;;;;59.60;31.80;;;;;;;2.27;53.19;100617.23;229228;1195;138608;-72
2023/02/11 01:17:05;;;;;;;61.10;32.20;;;;;;;2.19;53.27;100597.48;230035;1194;138544;-72
2023/02/11 01:22:19;;;;;;;58.20;30.80;;;;;;;2.06;53.57;100585.95;229294;1199;139235;-72
2023/02/11 01:27:22;;;;;;;57.30;31.10;;;;;;;1.94;54.01;100582.48;228924;1195;138653;-74
2023/02/11 01:32:25;;;;;;;55.20;30.20;;;;;;;1.89;54.23;100588.61;231158;1197;139439;-72
2023/02/11 01:37:32;;;;;;;54.90;30.10;;;;;;;1.82;54.50;100585.11;229875;1196;138608;-71
2023/02/11 01:42:35;;;;;;;59.60;30.80;;;;;;;1.81;54.68;100574.98;229900;1194;139403;-74
2023/02/11 01:47:38;;;;;;;56.80;30.40;;;;;;;1.79;54.72;100564.48;229726;1195;139116;-72
2023/02/11 01:52:45;;;;;;;58.50;31.10;;;;;;;1.77;54.73;100553.30;229213;1201;138500;-72
2023/02/11 01:57:55;;;;;;;55.60;30.40;;;;;;;1.83;54.76;100526.67;232827;1194;139144;-72
2023/02/11 02:03:13;;;;;;;58.60;31.40;;;;;;;1.84;54.80;100532.63;231496;1195;139254;-72
2023/02/11 02:08:30;;;;;;;59.50;32.00;;;;;;;1.82;54.95;100525.27;229731;1198;139492;-73
2023/02/11 02:13:37;;;;;;;58.20;32.10;;;;;;;1.81;54.81;100525.80;229832;1199;138608;-72
2023/02/11 02:19:02;;;;;;;60.10;32.10;;;;;;;1.83;54.91;100525.45;229644;1199;138586;-71
2023/02/11 02:24:14;;;;;;;58.90;31.90;;;;;;;1.88;54.70;100517.73;231819;1195;139603;-71
2023/02/11 02:29:39;;;;;;;50.80;28.50;;;;;;;1.88;54.71;100531.38;230189;1196;138832;-70
2023/02/11 02:35:10;;;;;;;51.70;28.40;;;;;;;1.81;54.83;100538.58;229807;1199;139238;-70
2023/02/11 02:40:22;;;;;;;57.30;30.00;;;;;;;1.78;54.99;100536.48;232547;1194;138435;-72
2023/02/11 02:45:26;;;;;;;55.80;30.90;;;;;;;1.82;54.92;100522.13;230550;1196;139086;-72
2023/02/11 02:50:34;;;;;;;54.30;30.50;;;;;;;1.81;54.87;100505.51;228834;1200;138427;-70
2023/02/11 02:55:52;;;;;;;59.50;31.50;;;;;;;1.76;54.88;100491.70;231130;1196;139438;-71
2023/02/11 03:01:14;;;;;;;54.60;30.00;;;;;;;1.79;54.83;100480.67;235090;1194;138411;-73
2023/02/11 03:06:32;;;;;;;52.90;29.40;;;;;;;1.78;54.76;100474.20;235218;1196;138480;-72
2023/02/11 03:11:36;;;;;;;53.40;30.80;;;;;;;1.79;54.70;100458.79;235162;1197;138615;-71
2023/02/11 03:16:42;;;;;;;52.30;29.00;;;;;;;1.78;54.83;100440.61;235105;1194;138874;-71
2023/02/11 03:21:48;;;;;;;47.40;27.20;;;;;;;1.78;54.96;100423.11;230761;1196;139544;-72
2023/02/11 03:26:55;;;;;;;42.40;24.30;;;;;;;1.79;54.88;100397.04;231012;1199;139477;-71
2023/02/11 03:32:07;;;;;;;39.30;22.70;;;;;;;1.79;54.72;100384.09;229266;1197;139033;-71
2023/02/11 03:37:21;;;;;;;42.00;24.30;;;;;;;1.82;54.66;100372.34;229387;1198;139501;-70
2023/02/11 03:42:30;;;;;;;40.30;23.20;;;;;;;1.80;54.65;100359.41;228973;1196;139125;-72
2023/02/11 03:47:38;;;;;;;41.20;23.60;;;;;;;1.71;54.75;100363.30;230081;1196;141191;-71
2023/02/11 03:52:41;;;;;;;43.10;24.50;;;;;;;1.68;55.05;100369.80;230459;1199;138933;-70
2023/02/11 03:57:46;;;;;;;42.40;23.50;;;;;;;1.65;54.97;100374.18;231270;1198;139350;-71
2023/02/11 04:02:50;;;;;;;39.80;23.70;;;;;;;1.69;55.02;100375.03;229615;1194;139414;-71
2023/02/11 04:07:54;;;;;;;44.20;23.20;;;;;;;1.70;54.89;100360.34;228448;1200;138598;-69
2023/02/11 04:12:57;;;;;;;38.60;22.90;;;;;;;1.70;54.84;100344.24;233283;1195;208800;-69
2023/02/11 04:18:02;;;;;;;38.90;22.10;;;;;;;1.66;54.97;100332.02;232189;1194;138822;-69
2023/02/11 04:23:06;;;;;;;39.40;21.90;;;;;;;1.64;54.88;100323.46;232505;1198;140510;-70
2023/02/11 04:28:09;;;;;;;39.90;22.10;;;;;;;1.67;54.84;100316.63;230417;1195;138483;-69
2023/02/11 04:33:13;;;;;;;39.10;21.60;;;;;;;1.69;54.85;100297.38;229340;1196;139097;-69
2023/02/11 04:38:16;;;;;;;38.80;20.90;;;;;;;1.70;54.87;100284.60;230951;1199;138669;-69
2023/02/11 04:43:20;;;;;;;38.50;22.60;;;;;;;1.71;54.85;100280.75;230171;1195;138479;-71
2023/02/11 04:48:23;;;;;;;38.90;21.60;;;;;;;1.77;54.88;100275.28;230871;1195;139477;-74
2023/02/11 04:53:27;;;;;;;36.30;21.00;;;;;;;1.79;54.94;100282.96;232079;1195;139398;-72
2023/02/11 04:58:30;;;;;;;35.70;20.50;;;;;;;1.78;54.91;100294.86;232581;1194;138936;-72
2023/02/11 05:03:34;;;;;;;38.00;21.50;;;;;;;1.76;55.07;100306.78;232151;1194;139666;-73
2023/02/11 05:08:37;;;;;;;39.30;22.20;;;;;;;1.79;55.24;100292.23;233868;1194;138803;-69
2023/02/11 05:13:40;;;;;;;36.40;22.10;;;;;;;1.85;55.13;100297.46;230910;1194;138547;-70
2023/02/11 05:18:44;;;;;;;36.70;22.90;;;;;;;1.77;55.43;100303.46;234225;1194;138681;-70
2023/02/11 05:23:47;;;;;;;34.50;21.30;;;;;;;1.76;55.53;100291.56;230986;1199;139431;-71
2023/02/11 05:28:51;;;;;;;39.70;22.70;;;;;;;1.81;55.73;100288.03;228529;1200;139120;-71
2023/02/11 05:33:54;;;;;;;38.00;22.10;;;;;;;1.84;55.52;100285.73;231770;1195;138782;-69
2023/02/11 05:38:57;;;;;;;39.70;22.70;;;;;;;1.87;55.51;100294.27;231772;1197;138852;-69
2023/02/11 05:44:00;;;;;;;39.10;22.80;;;;;;;1.89;55.43;100289.72;229813;1198;139201;-69
2023/02/11 05:49:04;;;;;;;41.10;21.60;;;;;;;1.89;55.58;100291.12;229102;1198;139544;-69
2023/02/11 05:54:07;;;;;;;37.90;22.80;;;;;;;1.86;55.82;100307.08;228680;1200;139687;-70
2023/02/11 05:59:14;;;;;;;39.10;22.20;;;;;;;1.79;55.89;100311.66;230638;1198;138552;-68
2023/02/11 06:04:17;;;;;;;40.70;21.90;;;;;;;1.79;56.16;100313.92;231858;1194;139393;-72
2023/02/11 06:09:20;;;;;;;38.70;22.80;;;;;;;1.85;56.09;100292.02;231702;1194;138964;-72
2023/02/11 06:14:24;;;;;;;36.80;21.20;;;;;;;1.94;56.12;100262.04;231021;1196;139634;-73
2023/02/11 06:19:27;;;;;;;38.10;23.20;;;;;;;2.01;55.84;100215.25;230388;1199;138567;-69
2023/02/11 06:24:30;;;;;;;36.10;22.90;;;;;;;2.08;56.10;100161.64;233879;1194;139098;-70
2023/02/11 06:29:54;;;;;;;37.40;21.10;;;;;;;2.14;55.74;100158.78;229870;1195;139456;-71
2023/02/11 06:34:58;;;;;;;38.40;21.10;;;;;;;2.17;55.85;100173.29;232672;1198;138819;-71
2023/02/11 06:40:01;;;;;;;36.80;22.30;;;;;;;2.25;55.83;100183.71;229140;1200;138581;-72
2023/02/11 06:45:07;;;;;;;39.40;21.80;;;;;;;2.34;55.58;100183.08;228805;1195;139852;-71
2023/02/11 06:50:13;;;;;;;63.60;40.60;;;;;;;2.38;55.31;100189.36;230579;1194;139284;-69
2023/02/11 06:55:16;;;;;;;37.90;22.40;;;;;;;2.37;55.45;100193.91;231842;1200;138491;-71
2023/02/11 07:00:20;;;;;;;41.30;23.90;;;;;;;2.34;55.17;100200.77;230746;1195;139286;-71
2023/02/11 07:05:23;;;;;;;43.30;24.80;;;;;;;2.36;55.19;100216.17;230486;1195;140925;-72
2023/02/11 07:10:27;;;;;;;42.80;23.70;;;;;;;2.42;55.08;100216.81;232509;1194;139419;-73
2023/02/11 07:15:30;;;;;;;42.00;24.00;;;;;;;2.46;55.06;100209.77;230400;1193;138659;-72
2023/02/11 07:20:33;;;;;;;41.30;23.20;;;;;;;2.54;55.03;100213.02;231788;1194;139158;-72
2023/02/11 07:25:37;;;;;;;69.30;40.80;;;;;;;2.59;55.29;100213.65;235130;1197;139043;-70
2023/02/11 07:30:40;;;;;;;38.40;22.60;;;;;;;2.67;55.41;100203.59;232361;1194;139005;-70
2023/02/11 07:35:43;;;;;;;36.40;20.70;;;;;;;2.78;54.91;100189.10;230327;1199;139795;-70
2023/02/11 07:40:46;;;;;;;30.70;19.80;;;;;;;2.87;54.69;100171.62;230780;1196;139264;-71
2023/02/11 07:45:50;;;;;;;30.20;19.00;;;;;;;2.90;54.72;100151.63;230075;1199;138886;-69
2023/02/11 07:50:53;;;;;;;61.20;36.70;;;;;;;2.93;54.64;100159.64;230525;1199;138582;-70
2023/02/11 07:55:56;;;;;;;33.60;19.80;;;;;;;2.91;54.95;100166.67;229322;1200;138923;-71
2023/02/11 08:01:08;;;;;;;33.20;20.10;;;;;;;2.91;54.68;100159.50;229896;1199;140309;-70
2023/02/11 08:06:14;;;;;;;32.20;19.30;;;;;;;2.96;54.97;100149.43;229556;1199;139633;-70
2023/02/11 08:11:26;;;;;;;37.60;20.60;;;;;;;2.99;55.04;100152.89;231667;1196;139435;-71
2023/02/11 08:16:31;;;;;;;32.10;19.40;;;;;;;2.97;55.07;100146.09;230563;1194;138700;-71
2023/02/11 08:21:35;;;;;;;;;;;;;;;3.02;55.30;100141.30;232877;1199;139146;-70
2023/02/11 08:26:38;;;;;;;32.30;19.20;;;;;;;3.09;55.35;100139.44;228770;1200;125978;-72
2023/02/11 08:31:45;;;;;;;32.50;18.30;;;;;;;3.12;55.27;100137.82;233372;1199;140089;-70
2023/02/11 08:36:48;;;;;;;29.80;18.10;;;;;;;3.17;55.21;100141.43;230862;1197;138655;-71
2023/02/11 08:41:55;;;;;;;27.70;17.30;;;;;;;3.25;55.14;100136.05;232928;1195;139179;-69
2023/02/11 08:46:58;;;;;;;27.10;16.10;;;;;;;3.32;54.90;100138.41;231237;1198;138970;-70
2023/02/11 08:52:03;;;;;;;28.10;17.90;;;;;;;3.47;54.36;100150.13;232618;1195;138801;-71
2023/02/11 08:57:06;;;;;;;29.80;16.60;;;;;;;3.61;54.18;100141.30;231570;1198;139138;-70
2023/02/11 09:02:13;;;;;;;34.00;17.10;;;;;;;3.81;54.23;100134.66;230701;1196;141377;-70
2023/02/11 09:07:16;;;;;;;33.80;19.30;;;;;;;3.92;53.43;100130.42;232326;1195;139476;-69
2023/02/11 09:12:20;;;;;;;31.90;17.40;;;;;;;4.03;53.70;100128.30;233500;1197;138899;-70
2023/02/11 09:17:23;;;;;;;28.80;16.90;;;;;;;4.17;52.50;100137.52;231915;1198;139259;-74
2023/02/11 09:22:26;;;;;;;30.30;16.00;;;;;;;4.25;52.13;100130.36;232219;1199;139540;-70
2023/02/11 09:27:30;;;;;;;32.20;16.80;;;;;;;4.40;52.32;100112.52;229385;1195;139869;-71
2023/02/11 09:32:33;;;;;;;26.90;15.50;;;;;;;4.48;51.88;100130.44;232028;1199;138893;-70
2023/02/11 09:37:36;;;;;;;32.10;16.50;;;;;;;4.50;51.28;100127.42;232305;1193;138892;-71
2023/02/11 09:42:49;;;;;;;26.40;15.50;;;;;;;4.57;51.29;100132.73;232358;1195;138590;-72
2023/02/11 09:48:09;;;;;;;27.10;14.40;;;;;;;4.77;52.87;100140.59;230774;1196;138766;-69
2023/02/11 09:53:18;;;;;;;26.40;15.30;;;;;;;5.01;50.69;100138.84;228706;1199;139127;-69
2023/02/11 09:58:37;;;;;;;27.00;15.90;;;;;;;5.01;50.16;100138.33;229141;1199;139501;-70
2023/02/11 10:03:40;;;;;;;28.20;16.60;;;;;;;5.02;50.20;100139.87;232749;1196;139673;-70
2023/02/11 10:09:10;;;;;;;27.30;16.60;;;;;;;5.04;50.52;100136.14;230574;1193;138690;-74
2023/02/11 10:14:52;;;;;;;36.30;19.30;;;;;;;5.08;50.55;100127.11;229185;1199;139722;-73
2023/02/11 10:20:44;;;;;;;29.70;17.40;;;;;;;5.17;50.16;100110.70;230200;1196;138577;-72
2023/02/11 10:25:53;;;;;;;25.10;16.50;;;;;;;5.16;49.91;100092.78;229272;1199;138542;-72
2023/02/11 10:31:16;;;;;;;29.10;17.30;;;;;;;5.15;50.13;100095.45;229466;1199;139385;-74
2023/02/11 10:36:25;;;;;;;27.60;16.60;;;;;;;5.17;50.17;100095.23;228878;1199;139266;-72
2023/02/11 10:41:33;;;;;;;27.10;17.20;;;;;;;5.17;50.31;100067.59;234566;1194;138991;-71
2023/02/11 10:46:38;;;;;;;27.50;17.30;;;;;;;5.20;50.53;100049.77;230852;1199;139044;-75
2023/02/11 10:51:42;;;;;;;31.60;17.20;;;;;;;5.29;50.08;100042.50;233757;1197;138504;-75
2023/02/11 10:56:57;;;;;;;27.70;17.00;;;;;;;5.42;50.31;100024.95;228952;1199;138928;-72
2023/02/11 11:02:19;;;;;;;34.60;18.80;;;;;;;5.53;49.76;100002.52;229798;1199;138483;-79
2023/02/11 11:07:28;;;;;;;42.80;24.10;;;;;;;5.69;49.59;99981.64;229314;1199;139427;-71
2023/02/11 11:12:46;;;;;;;32.70;19.30;;;;;;;5.78;49.44;99973.67;228903;1200;139025;-72
2023/02/11 11:18:09;;;;;;;28.60;17.40;;;;;;;5.80;48.67;99956.70;229949;1197;139502;-72
2023/02/11 11:23:25;;;;;;;29.10;17.20;;;;;;;5.80;48.75;99941.89;231781;1195;138220;-70
2023/02/11 11:28:37;;;;;;;34.40;19.70;;;;;;;5.84;49.06;99946.19;230936;1198;139044;-72
2023/02/11 11:33:43;;;;;;;37.00;19.30;;;;;;;5.91;48.93;99948.99;228928;1199;138311;-72
2023/02/11 11:38:54;;;;;;;31.20;18.20;;;;;;;6.12;48.88;99944.70;232509;1196;138309;-71
2023/02/11 11:44:01;;;;;;;32.00;20.10;;;;;;;6.29;48.47;99923.95;230276;1196;138455;-71
2023/02/11 11:49:27;;;;;;;28.70;17.90;;;;;;;6.30;48.36;99925.15;229050;1194;139148;-73
2023/02/11 11:54:33;;;;;;;32.00;18.20;;;;;;;6.14;48.68;99939.72;229059;1197;138896;-71
2023/02/11 11:59:37;;;;;;;31.80;18.30;;;;;;;6.02;48.83;99950.84;229330;1194;139168;-72
2023/02/11 12:04:56;;;;;;;29.20;18.60;;;;;;;6.01;49.37;99948.22;232828;1193;138671;-71
2023/02/11 12:10:30;;;;;;;28.20;17.50;;;;;;;5.93;49.38;99958.27;233288;1193;138919;-73
2023/02/11 12:16:08;;;;;;;30.80;18.60;;;;;;;5.83;49.81;99963.13;230733;1198;138914;-72
2023/02/11 12:21:54;;;;;;;31.00;19.20;;;;;;;5.77;50.36;99956.26;229160;1196;139381;-73
2023/02/11 12:27:19;;;;;;;35.90;19.20;;;;;;;5.63;50.40;99984.42;230813;1196;138671;-74
2023/02/11 12:32:32;;;;;;;33.60;19.10;;;;;;;5.62;51.12;99981.48;229990;1192;138486;-73
2023/02/11 12:37:49;;;;;;;33.80;19.60;;;;;;;5.64;51.27;99954.84;235598;1193;138168;-73
2023/02/11 12:43:16;;;;;;;32.40;20.00;;;;;;;5.63;51.55;99937.27;229184;1196;138711;-72
2023/02/11 12:48:39;;;;;;;31.00;18.20;;;;;;;5.61;51.58;99947.71;231927;1193;139596;-71
2023/02/11 12:54:13;;;;;;;34.00;20.30;;;;;;;5.49;52.21;99931.14;229968;1197;139101;-70
2023/02/11 12:59:55;;;;;;;34.80;21.50;;;;;;;5.45;52.20;99894.45;230828;1192;138477;-71
2023/02/11 13:05:19;;;;;;;34.90;21.50;;;;;;;5.44;52.75;99893.61;230937;1193;138674;-71
2023/02/11 13:10:28;;;;;;;31.60;20.20;;;;;;;5.44;52.66;99901.19;229463;1199;139049;-69
2023/02/11 13:15:34;;;;;;;38.90;22.20;;;;;;;5.43;53.50;99893.98;229876;1197;139031;-72
2023/02/11 13:21:09;;;;;;;35.30;20.70;;;;;;;5.39;53.93;99902.37;230509;1193;139470;-72
2023/02/11 13:26:32;;;;;;;32.40;20.30;;;;;;;5.35;54.65;99895.80;229459;1198;138581;-70
2023/02/11 13:31:37;;;;;;;36.20;22.70;;;;;;;5.35;55.72;99870.99;233282;1193;140027;-71
2023/02/11 13:36:54;;;;;;;37.10;21.40;;;;;;;5.28;56.74;99861.50;229802;1198;139565;-70
2023/02/11 13:42:03;;;;;;;36.80;22.00;;;;;;;5.22;57.09;99851.27;230410;1193;139453;-68
2023/02/11 13:47:28;;;;;;;39.30;23.20;;;;;;;5.16;57.39;99821.70;230176;1193;139055;-71
2023/02/11 13:52:36;;;;;;;35.10;22.10;;;;;;;5.10;58.10;99810.80;230263;1193;138401;-70
2023/02/11 13:57:41;;;;;;;35.30;21.40;;;;;;;5.06;58.10;99846.61;231720;1194;138496;-72
2023/02/11 14:14:22;;;;;;;36.00;21.70;;;;;;;5.09;58.26;99858.67;229415;1199;140280;-68
2023/02/11 14:20:00;;;;;;;35.70;22.50;;;;;;;5.09;58.23;99875.02;230735;1195;144231;-71
2023/02/11 14:25:15;;;;;;;31.60;20.20;;;;;;;5.11;58.21;99889.39;229773;1199;139248;-73
2023/02/11 14:30:56;;;;;;;88.00;56.30;;;;;;;5.10;58.72;99904.89;230362;1195;139531;-72
2023/02/11 14:36:42;;;;;;;33.90;22.20;;;;;;;5.15;58.63;99911.45;234366;1193;139610;-72
2023/02/11 14:41:49;;;;;;;28.20;19.40;;;;;;;5.12;59.09;99907.83;232073;1193;139447;-71
2023/02/11 14:46:55;;;;;;;30.10;19.50;;;;;;;5.07;59.28;99913.60;231273;1196;138933;-74
2023/02/11 14:52:21;;;;;;;34.90;20.70;;;;;;;5.10;59.16;99912.29;230844;1198;138548;-72
2023/02/11 14:57:26;;;;;;;32.80;19.50;;;;;;;5.09;59.26;99905.80;235289;1193;138819;-71
2023/02/11 15:02:37;;;;;;;33.00;21.10;;;;;;;5.06;59.51;99904.84;232008;1194;139403;-72
2023/02/11 15:07:47;;;;;;;34.10;19.70;;;;;;;5.06;59.79;99907.30;235191;1195;139514;-72
2023/02/11 15:12:52;;;;;;;31.90;20.90;;;;;;;4.99;60.00;99909.58;235272;1193;138798;-70
2023/02/11 15:17:58;;;;;;;34.00;21.70;;;;;;;4.95;60.89;99922.52;232364;1198;138941;-68
2023/02/11 15:23:06;;;;;;;38.50;22.00;;;;;;;4.89;61.24;99918.27;231774;1193;139597;-69
2023/02/11 15:28:24;;;;;;;33.90;20.30;;;;;;;4.89;61.75;99918.97;231630;1195;140108;-67
2023/02/11 15:33:30;;;;;;;38.20;21.70;;;;;;;4.89;62.65;99926.54;230140;1193;139417;-73
2023/02/11 15:38:34;;;;;;;34.10;22.30;;;;;;;4.83;63.34;99937.92;229656;1199;138934;-69
2023/02/11 15:43:44;;;;;;;37.20;22.60;;;;;;;4.75;63.87;99940.94;231772;1195;138649;-69
2023/02/11 15:48:51;;;;;;;35.60;21.60;;;;;;;4.65;64.77;99940.64;229629;1196;138819;-69
2023/02/11 15:54:18;;;;;;;252.60;164.80;;;;;;;4.54;65.59;99938.98;231875;1196;138671;-74
2023/02/11 15:59:31;;;;;;;43.10;23.70;;;;;;;4.49;66.43;99941.36;231759;1193;139187;-74
2023/02/11 16:04:35;;;;;;;43.30;24.00;;;;;;;4.46;67.00;99944.41;235254;1195;139591;-73
2023/02/11 16:09:38;;;;;;;37.20;23.80;;;;;;;4.48;66.94;99947.19;232094;1193;139561;-76
2023/02/11 16:14:42;;;;;;;39.80;25.10;;;;;;;4.43;67.53;99936.23;228789;1199;138755;-77
2023/02/11 16:19:48;;;;;;;41.80;25.50;;;;;;;4.38;67.62;99949.51;229033;1206;138652;-78
2023/02/11 16:24:54;;;;;;;42.50;24.90;;;;;;;4.34;67.98;99956.46;229145;1199;139743;-78
2023/02/11 16:29:57;;;;;;;40.20;23.70;;;;;;;4.35;67.87;99967.14;233313;1195;140449;-75
2023/02/11 16:35:09;;;;;;;41.30;24.40;;;;;;;4.41;68.35;99958.60;233668;1196;139669;-74
2023/02/11 16:40:13;;;;;;;37.60;23.30;;;;;;;4.40;68.57;99965.27;228897;1198;139215;-76
2023/02/11 16:45:17;;;;;;;37.00;23.90;;;;;;;4.32;68.84;99976.86;231750;1196;138755;-73
2023/02/11 16:50:23;;;;;;;39.60;23.30;;;;;;;4.25;69.10;99978.08;231114;1194;139231;-72
2023/02/11 16:55:27;;;;;;;40.00;24.60;;;;;;;4.18;69.69;99977.35;231877;1196;139494;-74
2023/02/11 17:00:31;;;;;;;40.10;24.10;;;;;;;4.25;69.62;99979.66;228973;1199;139675;-72
2023/02/11 17:05:35;;;;;;;40.20;25.20;;;;;;;4.31;69.51;99973.73;230496;1198;140384;-74
2023/02/11 17:10:57;;;;;;;43.00;25.50;;;;;;;4.31;69.96;99981.63;234235;1193;138750;-76
2023/02/11 17:16:01;;;;;;;68.30;40.00;;;;;;;4.31;70.19;99998.33;231362;1196;138797;-75
2023/02/11 17:21:06;;;;;;;41.60;24.30;;;;;;;4.27;70.43;100000.88;232680;1192;139300;-73
2023/02/11 17:26:11;;;;;;;40.70;25.30;;;;;;;4.21;70.32;100000.47;230089;1196;141638;-74
2023/02/11 17:31:16;;;;;;;42.80;25.60;;;;;;;4.23;70.44;100003.77;235359;1192;139367;-74
2023/02/11 17:36:22;;;;;;;41.20;25.50;;;;;;;4.23;70.53;100013.08;233122;1193;139582;-75
2023/02/11 17:41:27;;;;;;;36.90;25.20;;;;;;;4.19;70.48;100019.30;234554;1194;139821;-78
2023/02/11 17:46:33;;;;;;;41.80;24.90;;;;;;;4.24;70.72;100007.95;235198;1194;139351;-72
2023/02/11 17:51:38;;;;;;;37.00;24.00;;;;;;;4.32;70.65;100000.95;234406;1193;139260;-71
2023/02/11 17:56:46;;;;;;;41.30;25.60;;;;;;;4.42;70.39;99984.73;232186;1198;142030;-71
2023/02/11 18:01:59;;;;;;;39.90;25.00;;;;;;;4.44;70.59;99992.96;235219;1193;140007;-76
2023/02/11 18:07:06;;;;;;;38.60;25.50;;;;;;;4.38;70.63;99991.85;234546;1195;139456;-80
2023/02/11 18:12:11;;;;;;;44.00;25.80;;;;;;;4.33;70.78;100006.91;235286;1196;139233;-83
2023/02/11 18:17:14;;;;;;;37.10;22.70;;;;;;;4.34;70.99;100007.55;232396;1196;139352;-80
2023/02/11 18:22:19;;;;;;;39.60;24.20;;;;;;;4.38;71.37;100007.67;230698;1198;139461;-77
2023/02/11 18:27:26;;;;;;;39.80;25.00;;;;;;;4.38;71.14;100010.31;231362;1196;139430;-78
2023/02/11 18:32:32;;;;;;;37.90;24.80;;;;;;;4.38;71.10;100007.31;229983;1194;138841;-74
2023/02/11 18:37:36;;;;;;;55.50;36.20;;;;;;;4.42;71.62;100022.52;233031;1196;139025;-77
2023/02/11 18:42:41;;;;;;;42.20;25.60;;;;;;;4.39;71.60;100026.27;228933;1199;138793;-78
2023/02/11 18:47:47;;;;;;;37.40;24.00;;;;;;;4.36;71.39;100021.95;234353;1193;139446;-74
2023/02/11 18:52:51;;;;;;;42.10;25.80;;;;;;;4.36;71.90;100025.61;230752;1194;139973;-74
2023/02/11 18:57:56;;;;;;;41.60;25.80;;;;;;;4.44;71.62;100027.56;233074;1193;139616;-78
2023/02/11 19:03:00;;;;;;;37.80;24.90;;;;;;;4.45;71.90;100036.51;234368;1194;139440;-79
2023/02/11 19:08:04;;;;;;;39.50;24.90;;;;;;;4.44;71.75;100041.44;229362;1198;138871;-77
2023/02/11 19:13:08;;;;;;;38.80;24.70;;;;;;;4.48;71.93;100045.75;231471;1195;138796;-75
2023/02/11 19:18:14;;;;;;;38.70;23.50;;;;;;;4.51;71.76;100038.48;229724;1198;139833;-75
2023/02/11 19:23:17;;;;;;;41.20;25.60;;;;;;;4.56;71.83;100051.73;230749;1198;139461;-74
2023/02/11 19:28:21;;;;;;;41.10;23.90;;;;;;;4.53;72.02;100045.30;229653;1196;139224;-77
2023/02/11 19:33:31;;;;;;;37.40;24.90;;;;;;;4.54;71.94;100048.09;232311;1195;139042;-80
2023/02/11 19:38:37;;;;;;;34.60;22.80;;;;;;;4.51;71.89;100055.87;230551;1194;138751;-79
2023/02/11 19:43:45;;;;;;;38.40;24.10;;;;;;;4.55;71.92;100056.48;229734;1196;138978;-73
2023/02/11 19:48:50;;;;;;;40.10;24.90;;;;;;;4.55;72.17;100054.91;230106;1198;139844;-82
2023/02/11 19:53:57;;;;;;;53.70;31.80;;;;;;;4.62;72.61;100057.94;229816;1199;139085;-77
2023/02/11 19:59:03;;;;;;;42.10;25.20;;;;;;;4.67;72.41;100062.23;230241;1198;138925;-78
2023/02/11 20:04:09;;;;;;;43.10;27.20;;;;;;;4.60;72.33;100059.05;231504;1193;139475;-77
2023/02/11 20:09:14;;;;;;;38.80;24.80;;;;;;;4.54;72.73;100064.95;230312;1196;140489;-78
2023/02/11 20:14:18;;;;;;;42.00;26.40;;;;;;;4.58;72.91;100065.05;232488;1193;139681;-78
2023/02/11 20:19:23;;;;;;;81.30;55.50;;;;;;;4.61;73.17;100060.23;234184;1193;139781;-79
2023/02/11 20:24:29;;;;;;;42.60;27.30;;;;;;;4.62;73.28;100066.02;232621;1195;139075;-79
2023/02/11 20:29:37;;;;;;;;;;;;;;;4.65;73.27;100064.73;235248;1193;139238;-77
2023/02/11 20:34:44;;;;;;;41.20;24.80;;;;;;;4.68;73.12;100062.02;232533;1193;127130;-81
2023/02/11 20:39:49;;;;;;;106.90;72.60;;;;;;;4.73;73.25;100070.70;231414;1197;140260;-77
2023/02/11 20:44:53;;;;;;;45.00;28.60;;;;;;;4.86;73.61;100070.61;229688;1198;139254;-76
2023/02/11 20:49:58;;;;;;;59.40;36.70;;;;;;;4.96;72.90;100069.69;231041;1197;139520;-78
2023/02/11 20:55:03;;;;;;;48.10;29.70;;;;;;;4.95;72.71;100067.91;231167;1198;139358;-76
2023/02/11 21:00:08;;;;;;;46.90;27.20;;;;;;;4.94;72.65;100072.53;234077;1195;138581;-76
2023/02/11 21:05:11;;;;;;;45.50;27.80;;;;;;;4.95;72.79;100081.30;235230;1193;139249;-77
2023/02/11 21:10:15;;;;;;;44.80;28.90;;;;;;;4.98;72.79;100085.98;231637;1198;139999;-77
2023/02/11 21:15:18;;;;;;;42.00;27.40;;;;;;;4.99;72.70;100092.82;233352;1193;140753;-80
2023/02/11 21:20:22;;;;;;;44.70;28.30;;;;;;;4.92;72.65;100090.51;233232;1195;139299;-81
2023/02/11 21:25:25;;;;;;;44.20;29.40;;;;;;;4.95;72.94;100091.67;232130;1195;138749;-77
2023/02/11 21:30:28;;;;;;;43.10;26.90;;;;;;;5.04;72.86;100098.16;233387;1195;138690;-80
2023/02/11 21:35:35;;;;;;;40.40;26.10;;;;;;;5.08;72.87;100100.70;234418;1193;139143;-78
2023/02/11 21:40:39;;;;;;;44.50;27.90;;;;;;;5.15;72.81;100111.27;234223;1195;139438;-80
2023/02/11 21:45:44;;;;;;;43.90;28.10;;;;;;;5.26;72.35;100113.14;231370;1194;139103;-80
2023/02/11 21:50:47;;;;;;;41.70;25.70;;;;;;;5.27;72.78;100123.48;231082;1192;138990;-80
2023/02/11 21:56:01;;;;;;;37.90;26.60;;;;;;;5.25;72.64;100124.23;235226;1193;139447;-77
2023/02/11 22:01:17;;;;;;;42.90;27.20;;;;;;;5.27;72.70;100123.86;234128;1193;138545;-76
2023/02/11 22:06:27;;;;;;;40.60;26.30;;;;;;;5.28;72.59;100134.56;234688;1193;139435;-78
2023/02/11 22:11:30;;;;;;;42.20;27.10;;;;;;;5.28;72.84;100137.38;234380;1195;139935;-76
2023/02/11 22:16:34;;;;;;;44.70;27.40;;;;;;;5.34;72.75;100141.81;231378;1195;139584;-77
2023/02/11 22:21:38;;;;;;;40.90;27.40;;;;;;;5.41;72.84;100146.04;233150;1193;138764;-77
2023/02/11 22:26:42;;;;;;;41.90;28.90;;;;;;;5.41;72.56;100151.67;229704;1196;138452;-76
2023/02/11 22:31:45;;;;;;;43.50;27.90;;;;;;;5.34;72.47;100154.30;233763;1193;139945;-78
2023/02/11 22:36:49;;;;;;;44.40;28.00;;;;;;;5.22;72.73;100152.27;234761;1193;139510;-78
2023/02/11 22:41:53;;;;;;;47.30;28.90;;;;;;;5.21;73.17;100154.59;231074;1197;139830;-78
2023/02/11 22:46:56;;;;;;;45.70;28.90;;;;;;;5.26;73.02;100161.87;230905;1198;139631;-78
2023/02/11 22:52:00;;;;;;;44.20;28.60;;;;;;;5.33;72.95;100171.93;230618;1192;138812;-82
2023/02/11 22:57:32;;;;;;;46.50;30.60;;;;;;;5.33;72.96;100175.09;232136;1198;139590;-84
2023/02/11 23:03:38;;;;;;;;;;;;;;;;;;;;;
2023/02/11 23:24:05;;;;;;;53.60;33.60;;;;;;;5.33;73.76;100175.63;235249;1194;139530;-66
2023/02/11 23:36:36;;;;;;;44.40;30.30;;;;;;;5.26;73.54;100178.77;235118;1193;138905;-66
2023/02/11 23:42:39;;;;;;;50.70;30.70;;;;;;;5.27;73.57;100187.55;235091;1197;139864;-65
2023/02/11 23:48:51;;;;;;;46.80;29.40;;;;;;;5.28;73.51;100193.86;235392;1193;139934;-67
2023/02/11 23:54:53;;;;;;;;;;;;;;;;;;;;;
